createdAt,value
2023-01-06T00:00:23.895Z,17.90
2023-01-06T00:02:25.401Z,18.98
2023-01-06T00:04:27.627Z,18.77
2023-01-06T00:06:31.147Z,18.48
2023-01-06T00:08:34.634Z,19.63
2023-01-06T00:10:36.804Z,20.35
2023-01-06T00:12:38.510Z,19.35
2023-01-06T00:14:42.560Z,19.48
2023-01-06T00:16:44.037Z,19.40
2023-01-06T00:18:46.172Z,19.73
2023-01-06T00:20:47.637Z,19.17
2023-01-06T00:22:49.088Z,20.27
2023-01-06T00:24:50.545Z,20.58
2023-01-06T00:26:52.000Z,20.80
2023-01-06T00:28:54.844Z,19.92
2023-01-06T00:30:56.409Z,19.85
2023-01-06T00:32:57.882Z,19.45
2023-01-06T00:34:59.388Z,19.67
2023-01-06T00:37:00.905Z,19.92
2023-01-06T00:39:02.589Z,20.13
2023-01-06T00:41:33.187Z,21.58
2023-01-06T00:43:34.635Z,20.00
2023-01-06T00:45:36.083Z,20.58
2023-01-06T00:47:37.532Z,21.88
2023-01-06T00:49:39.004Z,20.75
2023-01-06T00:51:41.102Z,21.48
2023-01-06T00:53:42.557Z,21.80
2023-01-06T00:55:44.055Z,20.35
2023-01-06T00:57:45.489Z,20.38
2023-01-06T00:59:47.073Z,20.85
2023-01-06T01:01:50.950Z,20.73
2023-01-06T01:03:52.491Z,21.60
2023-01-06T01:05:59.546Z,21.52
2023-01-06T01:08:01.188Z,21.25
2023-01-06T01:10:03.255Z,21.08
2023-01-06T01:12:11.983Z,21.38
2023-01-06T01:16:17.741Z,23.08
2023-01-06T01:18:19.201Z,21.77
2023-01-06T01:20:20.657Z,22.10
2023-01-06T01:22:23.720Z,22.65
2023-01-06T01:24:25.345Z,22.13
2023-01-06T01:26:26.829Z,22.52
2023-01-06T01:28:28.271Z,22.40
2023-01-06T01:30:29.705Z,22.70
2023-01-06T01:32:31.171Z,22.95
2023-01-06T01:34:33.235Z,23.38
2023-01-06T01:36:34.731Z,22.20
2023-01-06T01:38:36.475Z,22.85
2023-01-06T01:40:37.906Z,22.30
2023-01-06T01:42:39.407Z,22.67
2023-01-06T01:44:56.135Z,23.67
2023-01-06T01:46:57.978Z,22.35
2023-01-06T01:49:03.965Z,22.38
2023-01-06T01:51:11.581Z,22.00
2023-01-06T01:53:23.936Z,23.48
2023-01-06T01:55:27.921Z,22.75
2023-01-06T01:57:37.903Z,24.50
2023-01-06T01:59:42.123Z,23.00
2023-01-06T02:01:44.620Z,23.48
2023-01-06T02:03:46.260Z,22.15
2023-01-06T02:05:57.560Z,22.75
2023-01-06T02:08:04.030Z,22.48
2023-01-06T02:10:20.595Z,23.23
2023-01-06T02:12:22.075Z,23.25
2023-01-06T02:14:29.177Z,21.83
2023-01-06T02:16:40.416Z,22.40
2023-01-06T02:19:22.603Z,21.40
2023-01-06T02:21:42.270Z,21.48
2023-01-06T02:24:08.073Z,20.42
2023-01-06T02:26:37.172Z,18.70
2023-01-06T02:29:14.546Z,18.38
2023-01-06T02:31:30.308Z,17.02
2023-01-06T02:33:34.591Z,16.85
2023-01-06T02:36:00.322Z,16.55
2023-01-06T02:38:23.660Z,16.10
2023-01-06T02:41:03.352Z,15.65
2023-01-06T02:43:46.802Z,14.98
2023-01-06T02:46:08.225Z,14.77
2023-01-06T02:48:34.203Z,15.23
2023-01-06T02:50:46.260Z,14.13
2023-01-06T02:52:57.866Z,13.45
2023-01-06T02:55:02.859Z,13.43
2023-01-06T02:57:14.173Z,13.43
2023-01-06T02:59:30.806Z,12.27
2023-01-06T03:01:38.561Z,13.65
2023-01-06T03:03:44.755Z,13.50
2023-01-06T03:05:51.988Z,13.05
2023-01-06T03:07:55.175Z,13.60
2023-01-06T03:09:59.654Z,12.80
2023-01-06T03:12:08.211Z,13.55
2023-01-06T03:14:15.392Z,13.63
2023-01-06T03:16:17.179Z,13.98
2023-01-06T03:18:18.880Z,12.82
2023-01-06T03:20:20.969Z,13.63
2023-01-06T03:22:24.040Z,12.75
2023-01-06T03:24:25.817Z,13.70
2023-01-06T03:26:27.584Z,12.70
2023-01-06T03:28:29.070Z,11.73
2023-01-06T03:30:48.162Z,12.98
2023-01-06T03:33:10.917Z,12.45
2023-01-06T03:35:28.179Z,12.25
2023-01-06T03:38:08.028Z,11.75
2023-01-06T03:40:20.054Z,11.55
2023-01-06T03:42:54.663Z,12.07
2023-01-06T03:45:22.183Z,10.73
2023-01-06T03:47:32.663Z,10.55
2023-01-06T03:49:54.595Z,9.20
2023-01-06T03:52:24.782Z,10.30
2023-01-06T03:54:44.364Z,9.95
2023-01-06T03:56:51.162Z,9.90
2023-01-06T03:58:57.416Z,8.60
2023-01-06T04:01:03.151Z,9.43
2023-01-06T04:03:11.547Z,8.30
2023-01-06T04:05:14.911Z,8.85
2023-01-06T04:07:16.369Z,7.57
2023-01-06T04:09:17.886Z,8.15
2023-01-06T04:11:38.016Z,7.80
2023-01-06T04:13:39.497Z,6.82
2023-01-06T04:15:41.053Z,6.88
2023-01-06T04:17:43.734Z,6.95
2023-01-06T04:19:45.265Z,7.65
2023-01-06T04:21:46.726Z,7.32
2023-01-06T04:23:48.195Z,7.47
2023-01-06T04:25:49.680Z,7.82
2023-01-06T04:27:52.003Z,7.45
2023-01-06T04:29:53.627Z,7.88
2023-01-06T04:31:55.247Z,7.95
2023-01-06T04:33:56.805Z,8.40
2023-01-06T04:35:58.267Z,8.73
2023-01-06T04:38:03.265Z,9.30
2023-01-06T04:40:06.480Z,9.43
2023-01-06T04:42:07.994Z,9.70
2023-01-06T04:44:09.488Z,10.10
2023-01-06T04:46:11.052Z,10.20
2023-01-06T04:48:13.903Z,10.80
2023-01-06T04:50:15.491Z,10.38
2023-01-06T04:52:17.039Z,11.07
2023-01-06T04:54:18.674Z,10.55
2023-01-06T04:56:20.145Z,11.65
2023-01-06T04:58:21.625Z,12.25
2023-01-06T05:00:23.384Z,11.70
2023-01-06T05:02:24.854Z,11.63
2023-01-06T05:04:28.364Z,11.40
2023-01-06T05:06:31.582Z,11.65
2023-01-06T05:08:33.149Z,11.75
2023-01-06T05:10:34.609Z,10.85
2023-01-06T05:12:36.693Z,11.57
2023-01-06T05:14:38.161Z,11.10
2023-01-06T05:16:39.919Z,11.25
2023-01-06T05:18:41.447Z,10.88
2023-01-06T05:20:42.948Z,10.63
2023-01-06T05:22:44.455Z,11.10
2023-01-06T05:24:46.063Z,10.85
2023-01-06T05:26:47.558Z,9.93
2023-01-06T05:28:49.348Z,9.82
2023-01-06T05:30:50.955Z,9.45
2023-01-06T05:32:52.417Z,10.25
2023-01-06T05:34:53.897Z,9.05
2023-01-06T05:36:56.523Z,10.23
2023-01-06T05:38:58.022Z,9.27
2023-01-06T05:40:59.500Z,9.23
2023-01-06T05:43:01.051Z,8.35
2023-01-06T05:45:02.565Z,8.73
2023-01-06T05:47:04.082Z,8.52
2023-01-06T05:49:05.584Z,8.35
2023-01-06T05:51:09.951Z,8.38
2023-01-06T05:53:11.425Z,7.93
2023-01-06T05:55:12.910Z,7.90
2023-01-06T05:57:14.419Z,7.90
2023-01-06T05:59:16.020Z,7.45
2023-01-06T06:01:26.250Z,8.05
2023-01-06T06:03:27.886Z,7.65
2023-01-06T06:05:29.448Z,6.95
2023-01-06T06:07:30.920Z,6.63
2023-01-06T06:09:32.489Z,6.75
2023-01-06T06:11:34.014Z,6.68
2023-01-06T06:13:36.116Z,6.95
2023-01-06T06:15:37.664Z,6.95
2023-01-06T06:17:39.120Z,6.63
2023-01-06T06:19:40.552Z,6.55
2023-01-06T06:21:42.015Z,5.57
2023-01-06T06:23:43.849Z,6.28
2023-01-06T06:25:45.317Z,5.93
2023-01-06T06:27:46.804Z,5.88
2023-01-06T06:29:48.267Z,5.38
2023-01-06T06:31:49.741Z,5.50
2023-01-06T06:33:53.119Z,4.75
2023-01-06T06:35:58.405Z,5.10
2023-01-06T06:37:59.885Z,4.53
2023-01-06T06:40:01.442Z,4.38
2023-01-06T06:42:03.233Z,4.53
2023-01-06T06:44:05.259Z,4.13
2023-01-06T06:46:07.641Z,3.55
2023-01-06T06:48:09.177Z,3.72
2023-01-06T06:50:12.243Z,3.50
2023-01-06T06:52:13.703Z,3.67
2023-01-06T06:54:15.174Z,3.72
2023-01-06T06:56:18.356Z,3.13
2023-01-06T06:58:19.925Z,2.67
2023-01-06T07:00:21.377Z,2.60
2023-01-06T07:02:22.922Z,3.00
2023-01-06T07:04:24.492Z,2.85
2023-01-06T07:06:28.815Z,2.78
2023-01-06T07:08:33.037Z,2.50
2023-01-06T07:10:34.633Z,2.22
2023-01-06T07:12:36.109Z,2.10
2023-01-06T07:14:37.653Z,3.15
2023-01-06T07:16:39.144Z,2.30
2023-01-06T07:18:40.680Z,1.83
2023-01-06T07:20:48.569Z,1.75
2023-01-06T07:22:50.046Z,1.40
2023-01-06T07:24:51.543Z,2.20
2023-01-06T07:26:53.015Z,1.50
2023-01-06T07:28:54.478Z,1.80
2023-01-06T07:30:56.152Z,1.65
2023-01-06T07:32:57.645Z,1.25
2023-01-06T07:34:59.133Z,1.58
2023-01-06T07:37:00.768Z,1.30
2023-01-06T07:39:02.252Z,1.52
2023-01-06T07:41:03.847Z,1.80
2023-01-06T07:43:09.306Z,1.25
2023-01-06T07:45:11.474Z,1.20
2023-01-06T07:47:13.898Z,1.50
2023-01-06T07:49:15.626Z,1.05
2023-01-06T07:51:17.142Z,1.20
2023-01-06T07:53:18.811Z,1.23
2023-01-06T07:55:20.295Z,1.20
2023-01-06T07:57:21.838Z,1.20
2023-01-06T07:59:23.389Z,1.30
2023-01-06T08:01:24.990Z,1.30
2023-01-06T08:03:26.577Z,1.20
2023-01-06T08:05:28.304Z,1.15
2023-01-06T08:07:29.894Z,1.15
2023-01-06T08:09:31.406Z,1.75
2023-01-06T08:11:32.873Z,1.15
2023-01-06T08:13:34.567Z,1.27
2023-01-06T08:15:37.709Z,1.25
2023-01-06T08:17:39.314Z,1.35
2023-01-06T08:19:40.813Z,1.40
2023-01-06T08:21:42.272Z,1.15
2023-01-06T08:23:43.797Z,1.30
2023-01-06T08:25:45.256Z,1.48
2023-01-06T08:27:46.740Z,1.60
2023-01-06T08:29:50.177Z,1.30
2023-01-06T08:31:56.902Z,1.33
2023-01-06T08:34:07.344Z,1.13
2023-01-06T08:36:11.601Z,1.30
2023-01-06T08:38:13.444Z,1.50
2023-01-06T08:40:14.912Z,1.27
2023-01-06T08:42:16.466Z,1.40
2023-01-06T08:44:18.752Z,1.63
2023-01-06T08:46:20.746Z,1.58
2023-01-06T08:48:22.249Z,1.45
2023-01-06T08:50:25.851Z,1.50
2023-01-06T08:52:27.998Z,1.67
2023-01-06T08:54:30.049Z,1.70
2023-01-06T08:56:32.434Z,1.83
2023-01-06T08:58:33.915Z,1.52
2023-01-06T09:00:36.888Z,1.80
2023-01-06T09:02:38.388Z,1.80
2023-01-06T09:04:39.999Z,1.98
2023-01-06T09:06:43.292Z,1.73
2023-01-06T09:08:45.245Z,1.80
2023-01-06T09:10:46.767Z,1.73
2023-01-06T09:12:48.363Z,1.70
2023-01-06T09:14:49.872Z,1.80
2023-01-06T09:16:51.686Z,2.15
2023-01-06T09:18:53.404Z,1.65
2023-01-06T09:20:54.856Z,1.67
2023-01-06T09:22:56.326Z,1.42
2023-01-06T09:24:57.788Z,1.67
2023-01-06T09:26:59.229Z,1.35
2023-01-06T09:29:00.704Z,1.52
2023-01-06T09:31:02.332Z,1.55
2023-01-06T09:33:03.881Z,1.15
2023-01-06T09:35:05.809Z,1.13
2023-01-06T09:37:07.684Z,1.30
2023-01-06T09:39:09.188Z,1.10
2023-01-06T09:41:19.404Z,1.30
2023-01-06T09:43:38.460Z,1.10
2023-01-06T09:45:53.370Z,1.20
2023-01-06T09:48:00.813Z,1.52
2023-01-06T09:50:08.954Z,1.35
2023-01-06T09:52:31.369Z,1.50
2023-01-06T09:54:42.137Z,1.23
2023-01-06T09:56:47.117Z,2.13
2023-01-06T09:58:55.697Z,1.50
2023-01-06T10:01:02.887Z,1.60
2023-01-06T10:03:05.857Z,1.73
2023-01-06T10:05:22.452Z,1.77
2023-01-06T10:07:34.170Z,2.17
2023-01-06T10:09:44.373Z,2.17
2023-01-06T10:11:57.184Z,1.98
2023-01-06T10:14:14.216Z,1.75
2023-01-06T10:16:24.485Z,1.90
2023-01-06T10:18:51.987Z,1.80
2023-01-06T10:20:59.533Z,1.83
2023-01-06T10:23:25.937Z,1.80
2023-01-06T10:25:34.834Z,1.80
2023-01-06T10:27:40.644Z,2.03
2023-01-06T10:29:43.384Z,2.08
2023-01-06T10:31:48.525Z,1.50
2023-01-06T10:33:55.103Z,1.33
2023-01-06T10:35:58.416Z,1.70
2023-01-06T10:38:04.698Z,1.20
2023-01-06T10:40:27.058Z,0.93
2023-01-06T10:42:57.280Z,1.38
2023-01-06T10:44:58.793Z,1.10
2023-01-06T10:47:00.348Z,0.95
2023-01-06T10:49:08.410Z,0.70
2023-01-06T10:51:31.371Z,1.13
2023-01-06T10:53:32.954Z,0.60
2023-01-06T10:55:52.942Z,0.63
2023-01-06T10:57:58.619Z,0.88
2023-01-06T11:00:12.665Z,0.80
2023-01-06T11:02:23.808Z,0.70
2023-01-06T11:04:27.936Z,0.63
2023-01-06T11:06:31.510Z,0.60
2023-01-06T11:08:33.885Z,0.40
2023-01-06T11:10:39.587Z,0.50
2023-01-06T11:12:45.924Z,0.40
2023-01-06T11:15:07.800Z,0.50
2023-01-06T11:17:14.985Z,0.52
2023-01-06T11:19:33.201Z,0.35
2023-01-06T11:21:42.237Z,0.85
2023-01-06T11:23:46.734Z,0.60
2023-01-06T11:26:10.395Z,0.50
2023-01-06T11:28:13.673Z,0.50
2023-01-06T11:30:31.200Z,0.80
2023-01-06T11:32:32.750Z,0.63
2023-01-06T11:34:34.761Z,0.60
2023-01-06T11:36:46.563Z,0.47
2023-01-06T11:38:52.414Z,0.47
2023-01-06T11:40:54.415Z,0.50
2023-01-06T11:43:03.392Z,0.70
2023-01-06T11:45:05.758Z,0.60
2023-01-06T11:47:20.372Z,0.32
2023-01-06T11:49:29.058Z,0.68
2023-01-06T11:53:34.471Z,0.60
2023-01-06T11:55:35.974Z,0.75
2023-01-06T11:57:50.737Z,0.70
2023-01-06T12:00:13.716Z,0.50
2023-01-06T12:02:30.502Z,0.43
2023-01-06T12:04:50.240Z,0.70
2023-01-06T12:06:59.913Z,0.60
2023-01-06T12:09:13.146Z,0.73
2023-01-06T12:11:21.099Z,0.63
2023-01-06T12:13:23.748Z,1.15
2023-01-06T12:15:29.159Z,0.50
2023-01-06T12:17:57.862Z,0.60
2023-01-06T12:20:05.951Z,0.52
2023-01-06T12:22:22.426Z,1.02
2023-01-06T12:24:25.519Z,1.30
2023-01-06T12:26:28.235Z,0.73
2023-01-06T12:28:37.579Z,0.40
2023-01-06T12:31:00.404Z,0.73
2023-01-06T12:33:17.574Z,0.50
2023-01-06T12:35:23.994Z,0.60
2023-01-06T12:37:34.372Z,0.52
2023-01-06T12:39:47.156Z,0.60
2023-01-06T12:42:10.603Z,0.60
2023-01-06T12:44:30.478Z,0.50
2023-01-06T12:46:42.603Z,0.55
2023-01-06T12:48:52.872Z,0.80
2023-01-06T12:51:04.065Z,0.60
2023-01-06T12:53:20.518Z,0.70
2023-01-06T12:55:51.732Z,0.77
2023-01-06T12:58:05.292Z,0.70
2023-01-06T13:00:22.642Z,0.63
2023-01-06T13:02:29.799Z,0.57
2023-01-06T13:04:37.263Z,0.82
2023-01-06T13:07:06.137Z,1.10
2023-01-06T13:09:23.354Z,0.60
2023-01-06T13:11:39.990Z,0.70
2023-01-06T13:14:00.138Z,0.60
2023-01-06T13:16:09.022Z,0.80
2023-01-06T13:18:19.195Z,0.60
2023-01-06T13:20:26.116Z,0.75
2023-01-06T13:23:07.180Z,0.75
2023-01-06T13:25:43.553Z,1.02
2023-01-06T13:27:50.881Z,0.70
2023-01-06T13:30:00.800Z,1.42
2023-01-06T13:32:08.208Z,0.95
2023-01-06T13:34:26.700Z,0.70
2023-01-06T13:37:05.901Z,0.85
2023-01-06T13:39:09.712Z,1.17
2023-01-06T13:41:16.558Z,1.33
2023-01-06T13:43:23.581Z,1.00
2023-01-06T13:45:35.914Z,1.45
2023-01-06T13:47:38.160Z,0.90
2023-01-06T13:49:41.544Z,0.95
2023-01-06T13:51:44.357Z,2.00
2023-01-06T13:53:47.004Z,0.90
2023-01-06T13:56:08.935Z,1.50
2023-01-06T13:58:34.360Z,0.80
2023-01-06T14:00:35.837Z,0.82
2023-01-06T14:02:39.902Z,0.70
2023-01-06T14:04:43.977Z,1.10
2023-01-06T14:06:46.655Z,1.45
2023-01-06T14:08:51.436Z,1.40
2023-01-06T14:11:02.313Z,1.50
2023-01-06T14:13:35.693Z,0.80
2023-01-06T14:18:31.025Z,1.05
2023-01-06T14:20:38.240Z,1.20
2023-01-06T14:22:40.488Z,1.10
2023-01-06T14:25:01.411Z,0.82
2023-01-06T14:27:08.163Z,1.25
2023-01-06T14:29:40.814Z,1.27
2023-01-06T14:31:42.475Z,1.33
2023-01-06T14:33:44.938Z,1.65
2023-01-06T14:35:47.724Z,1.15
2023-01-06T14:37:53.324Z,1.17
2023-01-06T14:39:56.572Z,1.35
2023-01-06T14:42:05.067Z,0.98
2023-01-06T14:44:16.973Z,1.55
2023-01-06T14:46:26.763Z,1.02
2023-01-06T14:48:32.407Z,1.35
2023-01-06T14:50:47.121Z,1.23
2023-01-06T14:52:57.924Z,1.27
2023-01-06T14:55:00.474Z,1.33
2023-01-06T14:57:03.592Z,1.20
2023-01-06T14:59:14.108Z,1.38
2023-01-06T15:01:25.182Z,1.25
2023-01-06T15:03:28.493Z,1.17
2023-01-06T15:05:36.072Z,1.52
2023-01-06T15:07:37.519Z,1.40
2023-01-06T15:09:38.994Z,1.10
2023-01-06T15:11:42.710Z,1.05
2023-01-06T15:13:44.990Z,1.27
2023-01-06T15:15:54.122Z,2.25
2023-01-06T15:17:57.529Z,1.40
2023-01-06T15:19:59.233Z,1.55
2023-01-06T15:22:05.432Z,1.05
2023-01-06T15:24:20.376Z,1.55
2023-01-06T15:26:27.692Z,1.35
2023-01-06T15:28:31.511Z,1.30
2023-01-06T15:30:36.513Z,1.63
2023-01-06T15:32:41.032Z,1.23
2023-01-06T15:34:46.532Z,2.33
2023-01-06T15:36:50.885Z,1.45
2023-01-06T15:38:54.421Z,1.27
2023-01-06T15:40:56.015Z,1.60
2023-01-06T15:42:57.844Z,1.08
2023-01-06T15:45:01.444Z,1.33
2023-01-06T15:47:06.679Z,1.33
2023-01-06T15:49:21.435Z,1.15
2023-01-06T15:51:22.957Z,1.90
2023-01-06T15:53:28.254Z,1.63
2023-01-06T15:55:32.050Z,1.30
2023-01-06T15:57:38.985Z,1.52
2023-01-06T15:59:42.191Z,1.40
2023-01-06T16:01:50.265Z,1.27
2023-01-06T16:03:54.943Z,1.10
2023-01-06T16:06:14.764Z,1.48
2023-01-06T16:08:25.982Z,1.27
2023-01-06T16:10:38.493Z,1.30
2023-01-06T16:12:40.059Z,1.30
2023-01-06T16:14:46.059Z,1.70
2023-01-06T16:16:47.567Z,1.88
2023-01-06T16:18:51.269Z,1.50
2023-01-06T16:20:53.005Z,2.70
2023-01-06T16:22:56.121Z,1.48
2023-01-06T16:25:00.619Z,1.30
2023-01-06T16:27:05.964Z,1.25
2023-01-06T16:29:29.179Z,1.55
2023-01-06T16:31:36.396Z,1.48
2023-01-06T16:33:45.793Z,2.33
2023-01-06T16:35:52.137Z,1.58
2023-01-06T16:37:54.075Z,1.55
2023-01-06T16:39:59.215Z,2.20
2023-01-06T16:42:00.639Z,1.98
2023-01-06T16:44:02.066Z,2.33
2023-01-06T16:46:13.762Z,1.52
2023-01-06T16:48:16.787Z,1.48
2023-01-06T16:50:22.649Z,2.40
2023-01-06T16:52:25.570Z,1.40
2023-01-06T16:54:27.206Z,1.23
2023-01-06T16:56:29.247Z,1.30
2023-01-06T16:58:32.899Z,1.15
2023-01-06T17:00:39.734Z,1.42
2023-01-06T17:02:42.259Z,1.42
2023-01-06T17:04:45.441Z,1.30
2023-01-06T17:06:47.002Z,1.20
2023-01-06T17:08:49.359Z,1.40
2023-01-06T17:10:51.910Z,1.25
2023-01-06T17:13:20.041Z,1.17
2023-01-06T17:15:21.675Z,0.88
2023-01-06T17:17:23.274Z,1.50
2023-01-06T17:19:28.694Z,1.60
2023-01-06T17:21:37.254Z,1.30
2023-01-06T17:24:02.477Z,1.80
2023-01-06T17:26:11.993Z,1.15
2023-01-06T17:28:22.058Z,1.38
2023-01-06T17:30:23.530Z,1.65
2023-01-06T17:32:32.593Z,1.35
2023-01-06T17:34:36.599Z,1.50
2023-01-06T17:36:40.233Z,1.33
2023-01-06T17:38:44.778Z,2.03
2023-01-06T17:40:46.364Z,1.63
2023-01-06T17:43:00.844Z,1.65
2023-01-06T17:45:16.513Z,1.20
2023-01-06T17:47:17.903Z,1.58
2023-01-06T17:49:19.299Z,1.60
2023-01-06T17:51:20.903Z,1.17
2023-01-06T17:53:46.826Z,1.60
2023-01-06T17:55:49.854Z,2.35
2023-01-06T17:57:55.303Z,1.30
2023-01-06T17:59:57.566Z,1.10
2023-01-06T18:02:01.131Z,1.45
2023-01-06T18:04:06.510Z,1.33
2023-01-06T18:06:20.212Z,1.45
2023-01-06T18:08:21.988Z,1.70
2023-01-06T18:10:23.479Z,1.40
2023-01-06T18:12:25.178Z,1.38
2023-01-06T18:14:33.591Z,1.30
2023-01-06T18:16:35.475Z,1.77
2023-01-06T18:18:42.013Z,1.98
2023-01-06T18:20:58.734Z,1.55
2023-01-06T18:23:00.434Z,1.38
2023-01-06T18:25:02.351Z,1.90
2023-01-06T18:27:22.123Z,1.50
2023-01-06T18:29:34.208Z,1.55
2023-01-06T18:31:39.317Z,1.73
2023-01-06T18:33:40.879Z,1.85
2023-01-06T18:35:42.792Z,2.20
2023-01-06T18:37:44.915Z,2.05
2023-01-06T18:39:50.015Z,1.98
2023-01-06T18:42:17.175Z,1.77
2023-01-06T18:44:20.456Z,2.63
2023-01-06T18:46:22.129Z,1.73
2023-01-06T18:48:27.184Z,1.50
2023-01-06T18:50:42.892Z,1.58
2023-01-06T18:52:46.188Z,1.98
2023-01-06T18:54:47.743Z,1.52
2023-01-06T18:56:51.257Z,1.83
2023-01-06T18:58:57.179Z,2.80
2023-01-06T19:01:11.228Z,3.55
2023-01-06T19:03:57.395Z,2.10
2023-01-06T19:06:10.764Z,2.00
2023-01-06T19:08:22.861Z,2.10
2023-01-06T19:10:27.898Z,2.00
2023-01-06T19:12:39.853Z,2.50
2023-01-06T19:14:44.422Z,2.00
2023-01-06T19:16:54.794Z,1.83
2023-01-06T19:19:08.520Z,2.05
2023-01-06T19:21:14.682Z,2.00
2023-01-06T19:23:22.915Z,2.55
2023-01-06T19:25:43.062Z,2.10
2023-01-06T19:27:48.241Z,2.53
2023-01-06T19:29:51.724Z,2.65
2023-01-06T19:31:56.716Z,2.55
2023-01-06T19:34:03.786Z,3.47
2023-01-06T19:36:40.488Z,3.50
2023-01-06T19:38:44.062Z,3.00
2023-01-06T19:40:45.622Z,2.58
2023-01-06T19:42:47.102Z,2.50
2023-01-06T19:44:50.343Z,3.35
2023-01-06T19:46:52.169Z,2.88
2023-01-06T19:48:55.662Z,2.90
2023-01-06T19:51:15.769Z,3.10
2023-01-06T19:53:43.343Z,3.20
2023-01-06T19:55:44.838Z,2.85
2023-01-06T19:57:51.495Z,3.67
2023-01-06T19:59:54.227Z,2.58
2023-01-06T20:02:07.719Z,2.70
2023-01-06T20:04:23.900Z,2.90
2023-01-06T20:06:25.335Z,2.45
2023-01-06T20:08:27.005Z,2.60
2023-01-06T20:10:28.494Z,2.60
2023-01-06T20:12:30.039Z,2.30
2023-01-06T20:14:31.517Z,2.53
2023-01-06T20:16:33.340Z,2.08
2023-01-06T20:18:34.980Z,2.17
2023-01-06T20:20:36.603Z,2.15
2023-01-06T20:22:38.079Z,2.35
2023-01-06T20:24:39.930Z,2.60
2023-01-06T20:26:41.774Z,1.90
2023-01-06T20:28:43.599Z,1.95
2023-01-06T20:30:46.428Z,1.85
2023-01-06T20:32:48.015Z,2.92
2023-01-06T20:34:49.527Z,2.28
2023-01-06T20:36:51.098Z,2.55
2023-01-06T20:38:52.744Z,4.18
2023-01-06T20:40:54.341Z,3.10
2023-01-06T20:42:56.021Z,3.08
2023-01-06T20:44:57.724Z,2.22
2023-01-06T20:46:59.183Z,5.18
2023-01-06T20:49:00.770Z,2.72
2023-01-06T20:51:02.636Z,2.42
2023-01-06T20:53:04.223Z,2.60
2023-01-06T20:55:06.148Z,2.55
2023-01-06T20:57:07.763Z,2.58
2023-01-06T20:59:09.327Z,2.80
2023-01-06T21:01:10.976Z,3.45
2023-01-06T21:03:12.694Z,3.40
2023-01-06T21:05:14.275Z,3.90
2023-01-06T21:07:15.746Z,3.42
2023-01-06T21:09:17.262Z,3.33
2023-01-06T21:11:18.740Z,3.22
2023-01-06T21:13:23.966Z,2.97
2023-01-06T21:15:28.284Z,2.92
2023-01-06T21:17:29.819Z,3.42
2023-01-06T21:19:31.336Z,3.13
2023-01-06T21:21:32.817Z,9.88
2023-01-06T21:23:34.273Z,7.68
2023-01-06T21:25:36.192Z,4.53
2023-01-06T21:27:37.796Z,4.75
2023-01-06T21:29:39.423Z,3.85
2023-01-06T21:31:41.075Z,3.75
2023-01-06T21:33:42.549Z,4.40
2023-01-06T21:35:44.044Z,3.90
2023-01-06T21:37:45.663Z,3.45
2023-01-06T21:39:48.158Z,3.95
2023-01-06T21:42:08.192Z,3.95
2023-01-06T21:44:09.679Z,3.90
2023-01-06T21:46:11.339Z,3.60
2023-01-06T21:48:14.015Z,4.18
2023-01-06T21:50:15.649Z,4.80
2023-01-06T21:52:17.639Z,6.10
2023-01-06T21:54:19.170Z,6.07
2023-01-06T21:56:20.691Z,6.28
2023-01-06T21:58:23.200Z,6.18
2023-01-06T22:00:24.675Z,7.28
2023-01-06T22:02:26.269Z,18.17
2023-01-06T22:04:27.812Z,13.82
2023-01-06T22:06:29.948Z,11.68
2023-01-06T22:08:32.739Z,10.40
2023-01-06T22:10:36.954Z,8.10
2023-01-06T22:12:41.324Z,8.75
2023-01-06T22:14:43.636Z,7.53
2023-01-06T22:16:45.704Z,7.68
2023-01-06T22:18:47.306Z,7.97
2023-01-06T22:20:48.954Z,7.90
2023-01-06T22:22:50.484Z,8.48
2023-01-06T22:24:53.294Z,9.90
2023-01-06T22:26:54.905Z,9.75
2023-01-06T22:28:56.351Z,9.10
2023-01-06T22:30:58.074Z,9.70
2023-01-06T22:32:59.573Z,9.77
2023-01-06T22:35:01.007Z,11.25
2023-01-06T22:37:02.511Z,11.80
2023-01-06T22:39:04.603Z,12.48
2023-01-06T22:41:07.090Z,12.30
2023-01-06T22:43:08.605Z,12.13
2023-01-06T22:45:11.372Z,13.15
2023-01-06T22:47:12.894Z,13.05
2023-01-06T22:49:15.039Z,14.43
2023-01-06T22:51:16.771Z,14.20
2023-01-06T22:53:18.219Z,13.38
2023-01-06T22:55:19.758Z,13.23
2023-01-06T22:57:21.305Z,13.55
2023-01-06T22:59:22.797Z,13.55
2023-01-06T23:01:24.306Z,14.77
2023-01-06T23:03:26.212Z,14.88
2023-01-06T23:05:28.895Z,15.15
2023-01-06T23:07:30.348Z,14.43
2023-01-06T23:09:31.799Z,14.60
2023-01-06T23:11:35.329Z,15.35
2023-01-06T23:13:38.119Z,16.10
2023-01-06T23:15:39.621Z,15.85
2023-01-06T23:17:41.142Z,15.25
2023-01-06T23:19:42.607Z,15.50
2023-01-06T23:21:44.653Z,18.55
2023-01-06T23:23:47.469Z,17.73
2023-01-06T23:25:48.932Z,19.15
2023-01-06T23:27:50.408Z,17.77
2023-01-06T23:29:51.891Z,17.38
2023-01-06T23:31:53.349Z,17.77
2023-01-06T23:33:57.081Z,17.45
2023-01-06T23:36:02.924Z,18.23
2023-01-06T23:38:04.392Z,17.02
2023-01-06T23:40:06.338Z,17.35
2023-01-06T23:42:07.797Z,17.42
2023-01-06T23:44:14.733Z,18.52
2023-01-06T23:46:19.032Z,18.40
2023-01-06T23:48:20.541Z,17.75
2023-01-06T23:50:22.001Z,18.20
2023-01-06T23:52:23.494Z,18.05
2023-01-06T23:54:24.979Z,18.02
2023-01-06T23:56:28.357Z,17.95
2023-01-06T23:58:32.384Z,18.67
